Time;durP1;ratioP1;P1;durP2;ratioP2;P2;SDS_P1;SDS_P2;PMS_P1;PMS_P2;Temp;Humidity;BMP_temperature;BMP_pressure;BME280_temperature;BME280_humidity;BME280_pressure;Samples;Min_cycle;Max_cycle;Signal;HPM_P1;HPM_P2
2022/12/12 00:01:21;;;;;;;1.97;1.83;;;;;;;8.74;100.00;97927.50;5071453;28;20249;-62
2022/12/12 00:03:49;;;;;;;1.90;1.80;;;;;;;8.79;100.00;97922.13;5071800;28;20606;-61
2022/12/12 00:06:16;;;;;;;1.93;1.83;;;;;;;8.76;100.00;97931.78;5070857;28;20200;-60
2022/12/12 00:08:44;;;;;;;1.67;1.57;;;;;;;8.74;100.00;97930.09;5071115;28;20661;-61
2022/12/12 00:11:12;;;;;;;1.97;1.83;;;;;;;8.78;100.00;97938.56;5071388;28;20584;-62
2022/12/12 00:13:39;;;;;;;1.67;1.57;;;;;;;8.79;100.00;97939.41;5071101;28;20401;-57
2022/12/12 00:16:07;;;;;;;1.97;1.87;;;;;;;8.79;100.00;97942.00;5071386;28;20203;-58
2022/12/12 00:18:35;;;;;;;2.17;1.97;;;;;;;8.80;100.00;97943.66;5071165;28;20645;-58
2022/12/12 00:21:05;;;;;;;2.00;1.90;;;;;;;8.76;100.00;97948.13;5071085;28;20192;-58
2022/12/12 00:23:32;;;;;;;2.50;2.00;;;;;;;8.79;100.00;97939.41;5071140;28;20667;-58
2022/12/12 00:26:02;;;;;;;2.40;2.07;;;;;;;8.70;100.00;97946.66;5070991;28;20230;-57
2022/12/12 00:28:29;;;;;;;4.53;1.90;;;;;;;8.69;100.00;97957.91;5070663;28;20590;-62
2022/12/12 00:30:56;;;;;;;1.97;1.87;;;;;;;8.76;100.00;97957.66;5071139;28;20210;-61
2022/12/12 00:33:23;;;;;;;2.00;1.90;;;;;;;8.74;100.00;97963.72;5070977;28;20200;-61
2022/12/12 00:35:51;;;;;;;2.03;1.93;;;;;;;8.73;100.00;97963.78;5071214;28;20196;-61
2022/12/12 00:38:19;;;;;;;2.73;2.13;;;;;;;8.63;100.00;97941.84;5070666;28;20200;-60
2022/12/12 00:40:46;;;;;;;2.00;1.90;;;;;;;8.86;100.00;97964.06;5070640;28;20676;-61
2022/12/12 00:43:15;;;;;;;2.20;2.10;;;;;;;8.76;100.00;97971.41;5070719;28;20202;-61
2022/12/12 00:45:42;;;;;;;3.93;2.10;;;;;;;8.84;100.00;97965.88;5070514;28;20196;-61
2022/12/12 00:48:09;;;;;;;2.30;2.10;;;;;;;8.78;100.00;97966.19;5070519;28;20200;-61
2022/12/12 00:50:37;;;;;;;8.07;2.20;;;;;;;8.74;100.00;97953.38;5070419;28;20623;-61
2022/12/12 00:53:04;;;;;;;2.00;1.90;;;;;;;8.86;100.00;97964.06;5070589;28;20196;-61
2022/12/12 00:55:31;;;;;;;2.17;2.03;;;;;;;8.74;100.00;97979.25;5070363;28;20225;-60
2022/12/12 00:57:57;;;;;;;7.93;2.60;;;;;;;8.72;100.00;97980.22;5070552;28;20192;-60
2022/12/12 01:00:26;;;;;;;2.40;2.20;;;;;;;8.58;100.00;97982.59;5070264;28;20202;-60
2022/12/12 01:02:55;;;;;;;2.40;2.20;;;;;;;8.68;100.00;98005.41;5070242;28;20271;-58
2022/12/12 01:05:23;;;;;;;3.33;3.03;;;;;;;8.63;100.00;97994.41;5070397;28;20660;-61
2022/12/12 01:07:50;;;;;;;3.33;2.53;;;;;;;8.63;100.00;98015.09;5069935;28;20227;-60
2022/12/12 01:10:17;;;;;;;3.60;2.87;;;;;;;8.59;100.00;98016.13;5070306;28;20609;-60
2022/12/12 01:12:44;;;;;;;4.03;2.83;;;;;;;8.51;100.00;98020.81;5070300;28;20580;-60
2022/12/12 01:15:12;;;;;;;2.53;2.33;;;;;;;8.50;100.00;98026.06;5070087;28;20200;-60
2022/12/12 01:17:41;;;;;;;3.23;2.93;;;;;;;8.50;100.00;98034.66;5069438;28;20604;-60
2022/12/12 01:20:16;;;;;;;3.40;2.53;;;;;;;8.43;100.00;98033.25;5069970;28;20314;-60
2022/12/12 01:22:43;;;;;;;4.70;2.70;;;;;;;8.35;100.00;98035.34;5069720;28;20206;-58
2022/12/12 01:25:11;;;;;;;3.70;2.90;;;;;;;8.27;100.00;98047.69;5070063;28;20621;-58
2022/12/12 01:27:37;;;;;;;3.20;3.00;;;;;;;8.24;100.00;98042.69;5070092;28;20672;-61
2022/12/12 01:30:06;;;;;;;3.67;3.27;;;;;;;8.19;100.00;98060.13;5069918;28;20315;-61
2022/12/12 01:32:33;;;;;;;3.50;3.20;;;;;;;8.15;100.00;98063.72;5069788;28;20230;-61
2022/12/12 01:35:06;;;;;;;3.47;3.17;;;;;;;8.10;100.00;98079.44;5069840;28;20196;-57
2022/12/12 01:37:33;;;;;;;3.63;3.13;;;;;;;8.01;100.00;98066.91;5070087;28;20663;-61
2022/12/12 01:39:59;;;;;;;4.23;3.20;;;;;;;8.03;100.00;98065.06;5070234;28;20375;-61
2022/12/12 01:42:28;;;;;;;3.13;2.87;;;;;;;7.96;100.00;98067.09;5069706;28;20206;-58
2022/12/12 01:44:55;;;;;;;2.97;2.77;;;;;;;7.91;100.00;98069.00;5069476;28;20200;-60
2022/12/12 01:47:23;;;;;;;3.23;3.03;;;;;;;7.89;100.00;98068.25;5069382;28;20206;-60
2022/12/12 01:49:54;;;;;;;3.00;2.80;;;;;;;7.91;100.00;98075.91;5069659;28;20584;-59
2022/12/12 01:52:27;;;;;;;3.47;2.83;;;;;;;7.95;100.00;98078.31;5069552;28;20240;-60
2022/12/12 01:54:56;;;;;;;2.63;2.30;;;;;;;7.99;100.00;98082.47;5069537;28;20200;-58
2022/12/12 01:57:27;;;;;;;2.60;2.40;;;;;;;8.03;100.00;98073.66;5069522;28;20192;-57
2022/12/12 01:59:55;;;;;;;2.90;2.17;;;;;;;8.11;100.00;98083.72;5069419;28;20193;-60
2022/12/12 02:02:22;;;;;;;2.60;2.40;;;;;;;8.11;100.00;98108.72;5069332;28;20298;-58
2022/12/12 02:04:48;;;;;;;2.73;2.53;;;;;;;8.14;100.00;98103.38;5069622;28;20650;-58
2022/12/12 02:07:16;;;;;;;2.23;2.13;;;;;;;8.22;100.00;98106.50;5069227;28;20231;-58
2022/12/12 02:09:47;;;;;;;2.80;2.60;;;;;;;8.21;100.00;98110.84;5069314;28;20215;-57
2022/12/12 02:12:15;;;;;;;2.80;2.30;;;;;;;8.26;100.00;98100.28;5069400;28;20196;-57
2022/12/12 02:14:46;;;;;;;2.63;2.50;;;;;;;8.27;100.00;98094.22;5069089;28;20200;-57
2022/12/12 02:17:49;;;;;;;2.30;2.20;;;;;;;8.21;100.00;98084.16;5069239;28;20206;-61
2022/12/12 02:20:54;;;;;;;2.70;2.50;;;;;;;8.32;100.00;98097.50;5069123;28;20192;-61
2022/12/12 02:23:58;;;;;;;2.47;2.37;;;;;;;8.33;100.00;98088.84;5069401;28;20214;-60
2022/12/12 02:27:18;;;;;;;2.30;2.20;;;;;;;8.38;100.00;98097.22;5069247;28;20313;-60
2022/12/12 02:30:08;;;;;;;2.60;2.40;;;;;;;8.44;100.00;98096.16;5071378;28;20233;-61
2022/12/12 02:32:58;;;;;;;2.57;2.30;;;;;;;8.48;100.00;98093.34;5073258;28;20291;-61
2022/12/12 02:35:35;;;;;;;2.20;2.10;;;;;;;8.49;100.00;98115.72;5069772;28;20210;-60
2022/12/12 02:38:13;;;;;;;2.63;2.43;;;;;;;8.44;100.00;98116.81;5073262;28;20221;-57
2022/12/12 02:40:54;;;;;;;2.53;2.33;;;;;;;8.34;100.00;98104.28;5073047;28;20203;-57
2022/12/12 02:43:26;;;;;;;2.27;2.13;;;;;;;8.50;100.00;98127.72;5072838;28;20199;-61
2022/12/12 02:45:59;;;;;;;2.63;2.50;;;;;;;8.51;100.00;98139.75;5072798;28;20218;-60
2022/12/12 02:48:34;;;;;;;2.50;2.30;;;;;;;8.49;100.00;98135.56;5073060;28;20192;-60
2022/12/12 02:51:05;;;;;;;3.47;2.40;;;;;;;8.51;100.00;98136.34;5072816;28;20293;-60
2022/12/12 02:53:32;;;;;;;2.60;2.40;;;;;;;8.42;100.00;98116.88;5072769;28;20196;-61
2022/12/12 02:56:04;;;;;;;2.90;2.70;;;;;;;8.46;100.00;98130.53;5072875;28;20192;-61
2022/12/12 02:58:33;;;;;;;3.27;3.07;;;;;;;8.46;100.00;98143.47;5072695;28;20196;-60
2022/12/12 03:01:18;;;;;;;2.40;2.30;;;;;;;8.47;100.00;98133.03;5072680;28;20196;-60
2022/12/12 03:09:51;;;;;;;2.53;2.37;;;;;;;8.48;100.00;98124.38;5072490;28;20272;-57
2022/12/12 03:12:27;;;;;;;2.67;2.47;;;;;;;8.55;100.00;98128.38;5072261;28;20199;-58
2022/12/12 03:15:01;;;;;;;2.53;2.33;;;;;;;8.48;100.00;98124.38;5072328;28;20202;-58
2022/12/12 03:17:33;;;;;;;2.70;2.50;;;;;;;8.48;100.00;98121.78;5072108;28;20198;-61
2022/12/12 03:20:10;;;;;;;3.23;2.60;;;;;;;8.50;100.00;98125.16;5072359;28;20664;-58
2022/12/12 03:22:45;;;;;;;2.63;2.53;;;;;;;8.52;100.00;98125.09;5072853;28;20206;-61
2022/12/12 03:25:17;;;;;;;2.70;2.50;;;;;;;8.45;100.00;98129.69;5072598;28;20596;-62
2022/12/12 03:27:51;;;;;;;4.27;2.57;;;;;;;8.40;100.00;98118.69;5072466;28;20739;-58
2022/12/12 03:30:20;;;;;;;2.50;2.30;;;;;;;8.35;100.00;98121.47;5071981;28;20222;-61
2022/12/12 03:32:53;;;;;;;2.60;2.40;;;;;;;8.35;100.00;98116.28;5072131;28;20203;-58
2022/12/12 03:35:27;;;;;;;2.70;2.50;;;;;;;8.35;100.00;98120.66;5071888;28;20872;-57
2022/12/12 03:37:59;;;;;;;2.80;2.60;;;;;;;8.31;100.00;98125.09;5072010;28;20243;-61
2022/12/12 03:40:31;;;;;;;3.00;2.80;;;;;;;8.30;100.00;98120.78;5071357;28;20222;-61
2022/12/12 03:43:03;;;;;;;3.93;2.97;;;;;;;8.34;100.00;98130.16;5072123;28;20659;-57
2022/12/12 03:45:37;;;;;;;3.20;3.00;;;;;;;8.33;100.00;98131.03;5071819;28;20235;-57
2022/12/12 03:48:09;;;;;;;2.57;2.47;;;;;;;8.34;100.00;98131.88;5071909;28;20671;-58
2022/12/12 03:50:44;;;;;;;3.73;3.27;;;;;;;8.39;100.00;98137.69;5071454;28;20719;-57
2022/12/12 03:53:17;;;;;;;3.50;3.23;;;;;;;8.34;100.00;98142.22;5071959;28;20293;-58
2022/12/12 03:55:49;;;;;;;4.17;3.47;;;;;;;8.32;100.00;98144.03;5071904;28;20561;-61
2022/12/12 03:58:20;;;;;;;3.67;2.93;;;;;;;8.24;100.00;98146.06;5071716;28;20200;-60
2022/12/12 04:00:50;;;;;;;3.30;3.00;;;;;;;8.21;100.00;98157.38;5071455;28;20191;-60
2022/12/12 04:03:25;;;;;;;3.33;3.10;;;;;;;8.25;100.00;98156.31;5071852;28;20203;-60
2022/12/12 04:12:57;;;;;;;3.43;3.13;;;;;;;8.12;100.00;98160.31;5071458;28;20246;-58
2022/12/12 04:14:31;;;;;;;3.63;3.33;;;;;;;8.26;100.00;98159.75;5062423;28;20620;-57
2022/12/12 04:17:03;;;;;;;4.20;3.23;;;;;;;8.33;100.00;98166.41;5050231;28;20228;-61
2022/12/12 04:25:26;;;;;;;3.47;3.17;;;;;;;8.42;100.00;98171.19;5050068;28;20736;-62
2022/12/12 04:27:57;;;;;;;3.53;3.33;;;;;;;8.43;100.00;98167.69;5049278;28;20216;-58
2022/12/12 04:30:26;;;;;;;3.57;3.27;;;;;;;8.44;100.00;98164.19;5049797;28;20236;-62
2022/12/12 04:32:59;;;;;;;4.23;3.40;;;;;;;8.47;100.00;98163.22;5058666;28;20262;-61
2022/12/12 04:35:29;;;;;;;4.57;3.67;;;;;;;8.52;100.00;98166.47;5069205;28;20224;-61
2022/12/12 04:38:01;;;;;;;4.30;3.67;;;;;;;8.51;100.00;98160.44;5070126;28;20652;-61
2022/12/12 04:40:31;;;;;;;6.23;3.90;;;;;;;8.53;100.00;98168.97;5069467;28;20224;-61
2022/12/12 04:43:00;;;;;;;3.77;3.47;;;;;;;8.62;100.00;98168.59;5068931;28;20234;-62
2022/12/12 04:45:32;;;;;;;3.90;3.63;;;;;;;8.55;100.00;98166.34;5069361;28;20230;-61
2022/12/12 04:48:01;;;;;;;4.07;3.73;;;;;;;8.43;100.00;98174.59;5069336;28;20686;-58
2022/12/12 04:50:31;;;;;;;3.90;3.53;;;;;;;8.43;100.00;98187.53;5067816;28;20717;-57
2022/12/12 04:53:02;;;;;;;9.43;4.57;;;;;;;8.25;100.00;98182.16;5067647;28;20607;-58
2022/12/12 04:55:32;;;;;;;4.20;3.80;;;;;;;8.29;100.00;98195.81;5069169;28;20220;-57
2022/12/12 04:58:01;;;;;;;6.80;3.60;;;;;;;8.31;100.00;98191.44;5068396;28;20224;-57
2022/12/12 05:00:34;;;;;;;4.20;3.80;;;;;;;8.29;100.00;98193.22;5068542;28;20333;-58
2022/12/12 05:03:10;;;;;;;4.10;3.60;;;;;;;8.16;100.00;98197.22;5068009;28;20240;-57
2022/12/12 05:05:41;;;;;;;3.90;3.60;;;;;;;8.11;100.00;98204.31;5067999;28;20215;-58
2022/12/12 05:08:14;;;;;;;5.63;4.37;;;;;;;8.00;100.00;98195.25;5067794;28;20814;-59
2022/12/12 05:10:43;;;;;;;4.67;3.47;;;;;;;7.87;100.00;98188.88;5068133;28;20243;-62
2022/12/12 05:13:16;;;;;;;5.00;4.60;;;;;;;7.94;100.00;98205.81;5067284;28;20220;-63
2022/12/12 05:15:43;;;;;;;5.70;5.20;;;;;;;7.94;100.00;98210.97;5068555;28;20231;-58
2022/12/12 05:18:11;;;;;;;5.27;4.83;;;;;;;7.87;100.00;98208.69;5068259;28;20303;-59
2022/12/12 05:20:41;;;;;;;6.83;6.20;;;;;;;7.88;100.00;98206.06;5067671;28;20219;-59
2022/12/12 05:23:09;;;;;;;5.73;5.23;;;;;;;7.89;100.00;98222.41;5068651;28;20275;-60
2022/12/12 05:25:36;;;;;;;6.87;5.43;;;;;;;7.76;100.00;98231.53;5068712;28;20223;-59
2022/12/12 05:28:03;;;;;;;7.40;6.13;;;;;;;7.61;100.00;98232.94;5067894;28;20219;-59
2022/12/12 05:30:30;;;;;;;18.40;10.60;;;;;;;7.64;100.00;98231.06;5068311;28;20231;-59
2022/12/12 05:32:57;;;;;;;20.33;9.63;;;;;;;7.68;100.00;98230.94;5068319;28;20229;-59
2022/12/12 05:35:24;;;;;;;14.57;10.60;;;;;;;7.73;100.00;98227.31;5068370;28;20220;-58
2022/12/12 05:37:51;;;;;;;16.90;10.50;;;;;;;7.77;100.00;98225.44;5068637;28;20220;-60
2022/12/12 05:40:21;;;;;;;12.70;8.90;;;;;;;7.63;100.00;98229.41;5068877;28;20313;-59
2022/12/12 05:42:48;;;;;;;7.53;6.73;;;;;;;7.47;100.00;98222.25;5068003;28;20730;-59
2022/12/12 05:45:15;;;;;;;7.90;6.13;;;;;;;7.45;100.00;98227.47;5067927;28;20228;-59
2022/12/12 05:47:42;;;;;;;7.87;5.80;;;;;;;7.47;100.00;98233.44;5067934;28;20215;-60
2022/12/12 05:50:09;;;;;;;6.13;5.20;;;;;;;7.54;100.00;98239.22;5067643;28;20231;-57
2022/12/12 05:52:36;;;;;;;7.53;6.17;;;;;;;7.76;100.00;98247.00;5067467;28;20230;-57
2022/12/12 05:55:03;;;;;;;7.83;7.03;;;;;;;7.62;100.00;98245.78;5068938;28;20192;-59
2022/12/12 05:57:31;;;;;;;10.43;7.20;;;;;;;7.59;100.00;98245.88;5068895;28;20204;-60
2022/12/12 05:59:58;;;;;;;8.30;7.50;;;;;;;7.53;100.00;98243.53;5069579;28;20290;-60
2022/12/12 06:02:25;;;;;;;16.73;8.47;;;;;;;7.54;100.00;98263.31;5069404;28;20291;-59
2022/12/12 06:04:52;;;;;;;27.63;17.60;;;;;;;7.54;100.00;98272.78;5069464;28;20206;-60
2022/12/12 06:07:19;;;;;;;28.20;19.30;;;;;;;7.49;100.00;98272.94;5069296;28;20228;-60
2022/12/12 06:09:46;;;;;;;29.30;18.27;;;;;;;7.33;100.00;98273.56;5069607;28;20200;-59
2022/12/12 06:12:13;;;;;;;29.87;19.33;;;;;;;7.33;100.00;98277.00;5069321;28;20219;-59
2022/12/12 06:14:41;;;;;;;26.20;15.67;;;;;;;7.28;100.00;98282.31;5069225;28;20203;-60
2022/12/12 06:17:08;;;;;;;26.67;16.53;;;;;;;7.23;100.00;98291.09;5069622;28;20324;-60
2022/12/12 06:19:35;;;;;;;22.60;15.33;;;;;;;7.06;100.00;98276.19;5069344;28;20203;-59
2022/12/12 06:22:02;;;;;;;24.20;16.30;;;;;;;7.11;100.00;98289.78;5069276;28;20202;-59
2022/12/12 06:24:29;;;;;;;25.17;15.60;;;;;;;7.16;100.00;98293.03;5069226;28;20203;-59
2022/12/12 06:26:56;;;;;;;20.87;13.93;;;;;;;7.17;100.00;98291.31;5069152;28;20701;-58
2022/12/12 06:29:23;;;;;;;28.40;13.47;;;;;;;7.19;100.00;98307.59;5068956;28;20202;-57
2022/12/12 06:31:51;;;;;;;24.03;14.23;;;;;;;7.19;100.00;98298.09;5069154;28;20691;-57
2022/12/12 06:34:18;;;;;;;23.00;12.87;;;;;;;7.24;100.00;98305.69;5069129;28;20192;-59
2022/12/12 06:36:46;;;;;;;24.73;15.10;;;;;;;7.35;100.00;98303.56;5069205;28;20195;-60
2022/12/12 06:39:13;;;;;;;29.43;14.17;;;;;;;7.38;100.00;98306.03;5069093;28;20199;-60
2022/12/12 06:41:39;;;;;;;24.57;15.13;;;;;;;7.47;100.00;98313.44;5068944;28;20196;-59
2022/12/12 06:44:06;;;;;;;25.07;16.73;;;;;;;7.44;100.00;98316.16;5068985;28;20200;-59
2022/12/12 06:46:34;;;;;;;25.00;16.53;;;;;;;7.38;100.00;98325.84;5069056;28;20239;-60
2022/12/12 06:49:08;;;;;;;27.20;18.13;;;;;;;7.35;100.00;98321.63;5069223;28;20206;-61
2022/12/12 06:51:42;;;;;;;49.93;24.73;;;;;;;7.34;100.00;98327.69;5068984;28;20226;-59
2022/12/12 06:54:09;;;;;;;28.67;19.13;;;;;;;7.38;100.00;98323.25;5069054;28;20206;-59
2022/12/12 06:56:36;;;;;;;32.73;18.97;;;;;;;7.47;100.00;98325.50;5069023;28;20198;-68
2022/12/12 06:59:03;;;;;;;28.63;18.00;;;;;;;7.62;100.00;98322.41;5069281;28;20202;-68
2022/12/12 07:01:30;;;;;;;35.13;21.23;;;;;;;7.75;100.00;98321.06;5068874;28;20287;-61
2022/12/12 07:03:57;;;;;;;40.37;22.47;;;;;;;7.81;100.00;98333.75;5068827;28;20607;-61
2022/12/12 07:06:25;;;;;;;49.60;25.27;;;;;;;7.91;100.00;98329.91;5068448;28;20192;-61
2022/12/12 07:08:52;;;;;;;43.83;24.20;;;;;;;7.89;100.00;98324.00;5068281;28;20642;-59
2022/12/12 07:11:22;;;;;;;38.73;19.97;;;;;;;7.97;100.00;98329.72;5068920;28;20216;-67
2022/12/12 07:13:49;;;;;;;30.23;15.83;;;;;;;8.00;100.00;98337.34;5069860;28;20214;-67
2022/12/12 07:16:17;;;;;;;23.07;13.93;;;;;;;8.19;100.00;98334.91;5072330;28;20196;-67
2022/12/12 07:18:44;;;;;;;20.50;13.53;;;;;;;8.30;100.00;98335.34;5072754;28;20202;-67
2022/12/12 07:21:13;;;;;;;21.47;13.87;;;;;;;8.46;100.00;98338.22;5072700;28;20192;-67
2022/12/12 07:23:42;;;;;;;22.30;14.60;;;;;;;8.73;100.00;98362.97;5072633;28;20196;-68
2022/12/12 07:26:13;;;;;;;28.73;15.93;;;;;;;8.75;100.00;98334.47;5072843;28;20287;-67
2022/12/12 07:28:40;;;;;;;36.20;18.43;;;;;;;8.74;100.00;98356.91;5072558;28;20238;-68
2022/12/12 07:31:08;;;;;;;34.23;16.00;;;;;;;8.80;100.00;98358.41;5072686;28;20220;-68
2022/12/12 07:33:35;;;;;;;29.60;15.10;;;;;;;8.67;100.00;98336.53;5072287;28;20204;-68
2022/12/12 07:36:03;;;;;;;25.27;14.87;;;;;;;8.88;100.00;98358.94;5072680;28;20789;-67
2022/12/12 07:38:29;;;;;;;32.80;13.83;;;;;;;8.97;100.00;98368.06;5071588;28;20196;-60
2022/12/12 07:41:03;;;;;;;29.03;13.37;;;;;;;9.07;100.00;98369.38;5072003;28;20199;-60
2022/12/12 07:43:30;;;;;;;28.27;13.70;;;;;;;9.12;100.00;98375.22;5071889;28;20743;-60
2022/12/12 07:45:57;;;;;;;23.80;14.13;;;;;;;9.16;100.00;98394.88;5072022;28;20196;-67
2022/12/12 07:48:23;;;;;;;40.50;20.50;;;;;;;9.09;100.00;98390.88;5072510;28;20202;-68
2022/12/12 07:50:51;;;;;;;36.10;18.63;;;;;;;9.13;100.00;98395.03;5072343;28;20315;-67
2022/12/12 07:53:18;;;;;;;33.97;15.47;;;;;;;9.12;100.00;98400.25;5072369;28;20238;-66
2022/12/12 07:55:46;;;;;;;22.90;12.87;;;;;;;9.16;100.00;98401.81;5071706;28;20204;-68
2022/12/12 07:58:14;;;;;;;26.80;12.77;;;;;;;9.17;100.00;98409.50;5071661;28;20679;-69
2022/12/12 08:00:41;;;;;;;45.20;24.47;;;;;;;9.22;100.00;98409.34;5072338;28;20210;-66
2022/12/12 08:03:08;;;;;;;45.17;21.40;;;;;;;9.14;100.00;98412.25;5073565;28;20226;-67
2022/12/12 08:05:35;;;;;;;33.53;18.53;;;;;;;9.12;100.00;98411.47;5073873;28;20662;-59
2022/12/12 08:08:02;;;;;;;34.80;21.67;;;;;;;9.01;100.00;98419.66;5071074;28;20232;-60
2022/12/12 08:10:29;;;;;;;48.63;25.67;;;;;;;9.15;100.00;98424.25;5071219;28;20200;-59
2022/12/12 08:12:56;;;;;;;44.77;27.30;;;;;;;9.28;100.00;98427.19;5071184;28;20206;-60
2022/12/12 08:15:24;;;;;;;44.33;25.87;;;;;;;9.27;100.00;98430.69;5070327;28;20262;-61
2022/12/12 08:17:51;;;;;;;47.30;26.30;;;;;;;9.45;100.00;98433.38;5051419;28;20255;-60
2022/12/12 08:20:18;;;;;;;44.83;28.40;;;;;;;9.62;100.00;98426.63;5050127;28;20310;-61
2022/12/12 08:22:45;;;;;;;41.47;28.13;;;;;;;9.82;100.00;98437.00;5050845;28;20687;-60
2022/12/12 08:25:12;;;;;;;42.53;26.03;;;;;;;10.00;100.00;98443.16;5053242;28;20296;-60
2022/12/12 08:27:39;;;;;;;34.77;20.00;;;;;;;9.99;100.00;98441.47;5070226;28;20274;-60
2022/12/12 08:30:08;;;;;;;31.40;18.47;;;;;;;10.10;100.00;98441.84;5070313;28;20307;-62
2022/12/12 08:32:36;;;;;;;47.33;19.50;;;;;;;10.12;99.18;98443.44;5070487;28;20227;-61
2022/12/12 08:35:04;;;;;;;43.90;20.83;;;;;;;10.06;100.00;98437.69;5069649;28;20212;-60
2022/12/12 08:37:31;;;;;;;28.50;18.10;;;;;;;9.88;100.00;98434.16;5070284;28;20711;-60
2022/12/12 08:39:58;;;;;;;46.03;17.57;;;;;;;9.82;100.00;98434.41;5070168;28;20216;-60
2022/12/12 08:42:25;;;;;;;28.00;17.80;;;;;;;9.90;100.00;98440.13;5070116;28;20551;-61
2022/12/12 08:44:52;;;;;;;33.73;18.17;;;;;;;9.85;100.00;98447.22;5070421;28;20238;-68
2022/12/12 08:47:19;;;;;;;40.83;16.77;;;;;;;9.95;100.00;98450.25;5085578;28;20227;-67
2022/12/12 08:49:47;;;;;;;31.27;17.37;;;;;;;9.88;100.00;98444.50;5090235;28;20199;-67
2022/12/12 08:52:14;;;;;;;36.80;18.40;;;;;;;9.89;100.00;98443.63;5090326;28;20215;-67
2022/12/12 08:54:41;;;;;;;44.20;22.57;;;;;;;9.99;100.00;98441.47;5090586;28;20218;-67
2022/12/12 08:57:08;;;;;;;37.93;22.17;;;;;;;10.03;100.00;98449.06;5090723;28;20227;-67
2022/12/12 08:59:35;;;;;;;43.50;21.77;;;;;;;10.12;100.00;98453.81;5090955;28;20205;-67
2022/12/12 09:02:01;;;;;;;39.57;20.37;;;;;;;10.32;100.00;98452.13;5091774;28;20187;-68
2022/12/12 09:04:28;;;;;;;34.13;20.33;;;;;;;10.51;100.00;98450.38;5090304;28;20242;-66
2022/12/12 09:06:57;;;;;;;32.97;15.07;;;;;;;10.74;97.34;98447.56;5090143;28;20771;-67
2022/12/12 09:09:24;;;;;;;25.57;14.83;;;;;;;10.68;96.92;98445.28;5090103;28;20209;-61
2022/12/12 09:11:51;;;;;;;17.77;11.97;;;;;;;10.64;96.76;98429.91;5090305;28;20310;-60
2022/12/12 09:14:17;;;;;;;15.50;8.60;;;;;;;10.55;95.03;98436.38;5090016;28;20199;-61
2022/12/12 09:16:44;;;;;;;18.20;8.87;;;;;;;10.54;95.33;98443.31;5090095;28;20694;-62
2022/12/12 09:19:11;;;;;;;18.37;9.27;;;;;;;10.57;94.41;98442.34;5090302;28;20191;-60
2022/12/12 09:21:38;;;;;;;23.20;12.60;;;;;;;10.70;94.17;98442.63;5089933;28;20196;-61
2022/12/12 09:24:08;;;;;;;11.20;7.60;;;;;;;10.80;92.95;98436.06;5089932;28;20195;-61
2022/12/12 09:26:35;;;;;;;13.90;7.97;;;;;;;10.94;91.40;98438.03;5090162;28;20231;-60
2022/12/12 09:29:02;;;;;;;14.50;8.00;;;;;;;11.06;90.41;98435.66;5090105;28;20227;-61
2022/12/12 09:31:29;;;;;;;10.67;8.00;;;;;;;11.12;90.33;98437.13;5089804;28;20223;-67
2022/12/12 09:33:56;;;;;;;43.93;22.63;;;;;;;11.13;89.55;98433.63;5090577;28;20199;-68
2022/12/12 09:36:23;;;;;;;32.57;15.60;;;;;;;11.11;89.01;98435.47;5089856;28;20191;-66
2022/12/12 09:38:50;;;;;;;14.27;8.07;;;;;;;10.82;89.80;98434.25;5083186;28;20321;-66
2022/12/12 09:41:20;;;;;;;10.80;6.57;;;;;;;10.65;90.27;98426.41;5049198;28;20307;-64
2022/12/12 09:43:55;;;;;;;8.70;7.80;;;;;;;10.66;91.34;98434.13;5048243;28;20296;-64
2022/12/12 09:46:30;;;;;;;7.83;7.07;;;;;;;10.65;90.98;98424.66;5049009;28;20220;-64
2022/12/12 09:49:03;;;;;;;8.30;7.10;;;;;;;10.74;91.34;98425.97;5057879;28;20227;-65
2022/12/12 09:51:30;;;;;;;11.83;7.47;;;;;;;10.91;91.05;98429.47;5069349;28;20236;-59
2022/12/12 09:53:57;;;;;;;7.77;6.97;;;;;;;11.14;89.98;98419.72;5068968;28;20228;-60
2022/12/12 09:56:35;;;;;;;13.73;6.80;;;;;;;11.21;88.62;98415.91;5068869;28;20589;-59
2022/12/12 09:59:10;;;;;;;10.77;7.80;;;;;;;11.12;91.62;98409.41;5068138;28;20227;-60
2022/12/12 10:01:41;;;;;;;11.53;7.13;;;;;;;11.15;89.63;98406.69;5068499;28;20216;-59
2022/12/12 10:04:20;;;;;;;10.00;6.17;;;;;;;11.32;87.44;98403.25;5068870;28;20224;-59
2022/12/12 10:06:53;;;;;;;11.47;6.27;;;;;;;11.24;88.47;98388.03;5068745;28;20215;-60
2022/12/12 10:09:40;;;;;;;9.97;6.83;;;;;;;11.37;87.94;98403.88;5068983;28;20229;-59
2022/12/12 10:12:15;;;;;;;12.23;6.10;;;;;;;11.46;89.48;98403.41;5068150;28;20659;-60
2022/12/12 10:14:45;;;;;;;10.17;7.33;;;;;;;11.51;87.89;98403.19;5068025;28;20219;-59
2022/12/12 10:17:16;;;;;;;13.50;7.17;;;;;;;11.57;87.01;98408.91;5069032;28;20283;-60
2022/12/12 10:19:49;;;;;;;10.33;7.30;;;;;;;11.52;86.67;98410.03;5062598;28;20293;-59
2022/12/12 10:22:23;;;;;;;11.30;7.17;;;;;;;11.50;86.30;98402.34;5048312;28;20622;-67
2022/12/12 10:24:55;;;;;;;10.00;8.37;;;;;;;11.55;86.30;98397.75;5068241;28;20666;-67
2022/12/12 10:27:25;;;;;;;12.77;8.27;;;;;;;11.56;86.35;98393.38;5069118;28;20216;-66
2022/12/12 10:29:53;;;;;;;9.10;7.23;;;;;;;11.48;86.45;98398.13;5069145;28;20258;-67
2022/12/12 10:32:34;;;;;;;14.20;7.33;;;;;;;11.54;87.09;98393.47;5068272;28;20508;-66
2022/12/12 10:35:11;;;;;;;9.90;6.73;;;;;;;11.58;87.34;98388.94;5069364;28;20293;-69
2022/12/12 10:37:50;;;;;;;8.03;6.40;;;;;;;11.65;87.34;98377.31;5069175;28;20230;-68
2022/12/12 10:40:27;;;;;;;10.90;7.10;;;;;;;11.59;87.31;98373.28;5068223;28;20234;-67
2022/12/12 10:43:03;;;;;;;9.27;7.77;;;;;;;11.61;87.29;98368.84;5069578;28;20192;-68
2022/12/12 10:45:44;;;;;;;10.20;7.53;;;;;;;11.68;86.41;98369.38;5070057;28;20208;-68
2022/12/12 10:48:11;;;;;;;10.83;7.47;;;;;;;11.62;87.05;98370.50;5069963;28;20202;-68
2022/12/12 10:50:42;;;;;;;14.40;8.40;;;;;;;11.65;87.48;98365.16;5071606;28;20374;-68
2022/12/12 10:53:11;;;;;;;9.10;7.50;;;;;;;11.67;86.72;98359.03;5073596;28;20216;-70
2022/12/12 10:55:44;;;;;;;9.37;7.40;;;;;;;11.83;85.10;98357.38;5073240;28;20192;-69
2022/12/12 10:58:15;;;;;;;14.03;7.90;;;;;;;11.83;84.56;98359.97;5073418;28;20203;-69
2022/12/12 11:00:44;;;;;;;16.93;8.60;;;;;;;11.89;84.39;98363.09;5073494;28;20675;-69
2022/12/12 11:03:23;;;;;;;11.03;9.13;;;;;;;11.91;84.70;98365.59;5072595;28;20279;-69
2022/12/12 11:05:51;;;;;;;13.03;9.50;;;;;;;11.91;84.99;98374.25;5072736;28;20227;-69
2022/12/12 11:08:21;;;;;;;15.10;9.37;;;;;;;11.93;84.72;98366.38;5071571;28;20606;-69
2022/12/12 11:11:00;;;;;;;14.63;9.97;;;;;;;11.94;85.01;98361.09;5070896;28;20321;-69
2022/12/12 11:13:29;;;;;;;15.27;10.30;;;;;;;12.00;85.38;98359.91;5069223;28;20208;-69
2022/12/12 11:15:59;;;;;;;16.67;9.97;;;;;;;11.88;85.26;98351.00;5070987;28;20189;-69
2022/12/12 11:18:26;;;;;;;15.53;9.50;;;;;;;11.95;85.14;98344.56;5070820;28;20199;-69
2022/12/12 11:21:04;;;;;;;13.87;9.63;;;;;;;12.10;83.29;98342.06;5070899;28;20211;-69
2022/12/12 11:23:34;;;;;;;19.47;10.83;;;;;;;12.04;84.93;98339.81;5070017;28;20188;-60
2022/12/12 11:26:04;;;;;;;15.13;10.40;;;;;;;11.93;84.78;98337.78;5068489;28;20206;-60
2022/12/12 11:28:35;;;;;;;16.87;9.87;;;;;;;11.95;83.90;98333.34;5070852;28;20196;-60
2022/12/12 11:31:05;;;;;;;18.17;10.53;;;;;;;11.99;83.47;98332.22;5067995;28;20192;-61
2022/12/12 11:33:35;;;;;;;20.17;12.03;;;;;;;11.95;83.45;98334.19;5070306;28;20216;-60
2022/12/12 11:36:05;;;;;;;17.13;11.70;;;;;;;11.83;84.89;98328.78;5068591;28;20592;-68
2022/12/12 11:38:38;;;;;;;17.73;11.10;;;;;;;11.75;86.18;98325.69;5070779;28;20188;-60
2022/12/12 11:41:07;;;;;;;20.30;11.07;;;;;;;11.75;85.38;98326.56;5068746;28;20207;-61
2022/12/12 11:43:37;;;;;;;22.70;12.33;;;;;;;11.75;85.29;98325.69;5070300;28;20197;-68
2022/12/12 11:46:07;;;;;;;21.83;12.40;;;;;;;11.81;85.34;98326.25;5070165;28;20192;-69
2022/12/12 11:48:38;;;;;;;25.73;12.77;;;;;;;11.87;85.50;98332.88;5067585;28;20714;-69
2022/12/12 11:51:06;;;;;;;26.57;13.43;;;;;;;11.73;86.08;98310.19;5070290;28;20207;-69
2022/12/12 11:53:36;;;;;;;24.87;14.23;;;;;;;11.79;86.34;98333.28;5070328;28;20588;-69
2022/12/12 11:56:16;;;;;;;23.20;15.53;;;;;;;11.80;86.26;98336.72;5070324;28;20188;-70
2022/12/12 11:58:50;;;;;;;27.70;16.83;;;;;;;11.86;85.72;98336.41;5070380;28;20204;-69